createdAt,value
2022-07-29T00:11:07.680Z,49
2022-07-29T00:25:41.549Z,49.1
2022-07-29T00:40:11.270Z,48.9
2022-07-29T00:54:34.434Z,47.1
2022-07-29T01:08:47.544Z,48.6
2022-07-29T01:23:14.388Z,48.1
2022-07-29T01:37:41.972Z,48.3
2022-07-29T01:52:09.175Z,49.7
2022-07-29T02:06:37.412Z,47.1
2022-07-29T02:21:04.865Z,47.3
2022-07-29T02:35:38.129Z,46.4
2022-07-29T02:50:02.938Z,46.7
2022-07-29T03:04:35.669Z,46.6
2022-07-29T03:18:57.905Z,47.1
2022-07-29T03:33:25.233Z,49.3
2022-07-29T03:47:58.532Z,49.4
2022-07-29T04:02:30.265Z,51.5
2022-07-29T04:16:52.289Z,49.6
2022-07-29T04:31:26.146Z,50.6
2022-07-29T04:45:50.923Z,51
2022-07-29T05:00:18.211Z,53.1
2022-07-29T05:14:44.500Z,55.3
2022-07-29T05:29:45.673Z,54.6
2022-07-29T05:43:56.315Z,55.2
2022-07-29T05:58:24.585Z,57
2022-07-29T06:12:53.207Z,56.4
2022-07-29T06:27:23.178Z,58.8
2022-07-29T06:41:51.600Z,60
2022-07-29T06:56:19.550Z,52.4
2022-07-29T07:10:49.566Z,48.8
2022-07-29T07:25:18.369Z,50.6
2022-07-29T07:39:54.221Z,39.2
2022-07-29T07:54:30.245Z,35.4
2022-07-29T08:08:56.524Z,40.7
2022-07-29T08:23:51.610Z,40.7
2022-07-29T08:38:27.894Z,36.7
2022-07-29T08:53:00.428Z,34.8
2022-07-29T09:07:38.184Z,35.8
2022-07-29T09:21:53.211Z,37
2022-07-29T09:36:17.070Z,39.2
2022-07-29T09:50:48.045Z,38.7
2022-07-29T10:05:15.039Z,39
2022-07-29T10:19:42.181Z,39.6
2022-07-29T10:34:12.494Z,37.4
2022-07-29T10:48:43.639Z,37.2
2022-07-29T11:03:12.394Z,36.7
2022-07-29T11:17:52.401Z,36.2
2022-07-29T12:20:44.922Z,35.8
2022-07-29T12:35:10.509Z,36
2022-07-29T12:49:39.743Z,34.6
2022-07-29T13:04:06.455Z,34.9
2022-07-29T13:18:34.691Z,35.4
2022-07-29T13:33:01.582Z,35.4
2022-07-29T13:47:33.324Z,35.8
2022-07-29T14:01:57.167Z,41
2022-07-29T14:16:24.245Z,42.7
2022-07-29T14:30:51.200Z,43.9
2022-07-29T14:45:17.976Z,44.2
2022-07-29T14:59:45.932Z,44.3
2022-07-29T15:14:13.795Z,44.8
2022-07-29T15:28:42.970Z,44.9
2022-07-29T15:43:11.394Z,44.5
2022-07-29T15:57:39.063Z,44.7
2022-07-29T16:12:15.720Z,41.1
2022-07-29T16:26:37.533Z,42.1
2022-07-29T16:41:03.785Z,40.9
2022-07-29T16:55:31.661Z,42.5
2022-07-29T17:10:04.331Z,42.6
2022-07-29T17:24:29.265Z,43.1
2022-07-29T17:38:55.138Z,43.8
2022-07-29T17:53:22.714Z,44.6
2022-07-29T18:07:49.315Z,45.8
2022-07-29T18:22:18.276Z,47.5
2022-07-29T18:36:43.643Z,49.3
2022-07-29T18:51:10.857Z,50
2022-07-29T19:05:37.501Z,51.2
2022-07-29T19:20:07.460Z,51.8
2022-07-29T19:34:32.866Z,52.4
2022-07-29T19:48:58.526Z,54.5
2022-07-29T20:03:26.325Z,54.5
2022-07-29T20:17:57.588Z,54.5
2022-07-29T20:32:20.561Z,56
2022-07-29T20:46:48.134Z,56.8
2022-07-29T21:01:15.002Z,58.9
2022-07-29T21:15:42.655Z,58.7
2022-07-29T21:30:10.399Z,59
2022-07-29T21:44:38.446Z,59.1
2022-07-29T21:59:10.553Z,60
2022-07-29T22:13:37.176Z,60.8
2022-07-29T22:28:04.193Z,61.8
2022-07-29T22:42:32.500Z,60.8
2022-07-29T22:57:02.326Z,62
2022-07-29T23:11:29.659Z,63.1
2022-07-29T23:25:57.271Z,63.1
2022-07-29T23:40:25.068Z,66.6
2022-07-29T23:55:39.434Z,68.6
